Time;durP1;ratioP1;P1;durP2;ratioP2;P2;SDS_P1;SDS_P2;PMS_P1;PMS_P2;Temp;Humidity;BMP_temperature;BMP_pressure;BME280_temperature;BME280_humidity;BME280_pressure;Samples;Min_cycle;Max_cycle;Signal;HPM_P1;HPM_P2
2023/01/30 00:02:18;;;;;;;33.03;18.08;;;;;;;3.59;100.00;96910.81;5051624;28;20084;-55
2023/01/30 00:04:48;;;;;;;33.28;16.42;;;;;;;3.29;100.00;96899.47;5053231;28;20092;-54
2023/01/30 00:07:16;;;;;;;36.23;18.07;;;;;;;3.43;100.00;96897.84;5056107;28;20080;-52
2023/01/30 00:09:46;;;;;;;33.97;17.85;;;;;;;3.54;100.00;96893.69;5055219;28;20506;-57
2023/01/30 00:12:14;;;;;;;32.15;17.08;;;;;;;3.90;100.00;96888.97;5049655;28;20084;-54
2023/01/30 00:14:43;;;;;;;32.17;16.65;;;;;;;3.54;100.00;96887.59;5054471;28;20476;-55
2023/01/30 00:17:11;;;;;;;34.83;16.85;;;;;;;3.38;100.00;96884.25;5050684;28;20072;-52
2023/01/30 00:19:39;;;;;;;33.47;18.13;;;;;;;3.59;100.00;96882.13;5051347;28;20084;-51
2023/01/30 00:22:09;;;;;;;34.42;17.10;;;;;;;3.30;100.00;96888.16;5053959;28;20084;-54
2023/01/30 00:24:37;;;;;;;29.65;17.50;;;;;;;3.62;100.00;96871.53;5054213;28;20080;-52
2023/01/30 00:27:06;;;;;;;31.23;16.52;;;;;;;3.49;100.00;96880.06;5052057;28;20412;-55
2023/01/30 00:29:34;;;;;;;33.70;17.38;;;;;;;3.41;100.00;96868.44;5054694;28;20540;-53
2023/01/30 00:32:02;;;;;;;31.67;16.15;;;;;;;2.79;100.00;96877.16;5051692;28;20088;-57
2023/01/30 00:34:31;;;;;;;32.40;16.67;;;;;;;3.02;100.00;96864.59;5049773;28;20320;-52
2023/01/30 00:36:59;;;;;;;35.05;17.55;;;;;;;2.68;100.00;96863.91;5055582;28;20142;-57
2023/01/30 00:39:37;;;;;;;34.15;17.48;;;;;;;2.94;100.00;96844.19;5048033;28;20060;-55
2023/01/30 00:47:36;;;;;;;36.25;19.63;;;;;;;2.92;100.00;96842.59;5064408;28;20075;-57
2023/01/30 00:50:06;;;;;;;31.67;15.93;;;;;;;2.89;100.00;96841.03;5053946;28;20072;-54
2023/01/30 00:52:34;;;;;;;33.05;18.52;;;;;;;3.24;100.00;96833.75;5056426;28;20103;-57
2023/01/30 00:55:04;;;;;;;35.97;18.90;;;;;;;3.11;100.00;96827.59;5056849;28;20076;-56
2023/01/30 00:57:33;;;;;;;33.25;17.95;;;;;;;3.23;100.00;96828.63;5044928;28;20064;-56
2023/01/30 01:00:04;;;;;;;36.08;19.80;;;;;;;3.13;100.00;96833.53;5051738;28;20091;-55
2023/01/30 01:02:32;;;;;;;35.85;17.75;;;;;;;3.31;100.00;96826.44;5058624;28;20077;-52
2023/01/30 01:05:00;;;;;;;34.10;17.52;;;;;;;3.34;100.00;96821.03;5038303;28;20072;-55
2023/01/30 01:07:29;;;;;;;32.58;17.33;;;;;;;3.18;100.00;96826.31;5055898;28;20088;-54
2023/01/30 01:09:58;;;;;;;36.55;18.08;;;;;;;3.63;100.00;96821.03;5056971;28;20056;-52
2023/01/30 01:12:27;;;;;;;32.85;17.38;;;;;;;3.47;100.00;96827.16;5055125;28;20084;-53
2023/01/30 01:14:56;;;;;;;33.27;18.53;;;;;;;3.42;100.00;96820.56;5059162;28;20076;-55
2023/01/30 01:17:24;;;;;;;31.20;16.80;;;;;;;3.58;100.00;96818.72;5052972;28;20506;-56
2023/01/30 01:19:53;;;;;;;39.28;18.08;;;;;;;3.85;100.00;96820.56;5059106;28;20091;-56
2023/01/30 01:22:21;;;;;;;34.30;18.63;;;;;;;3.74;100.00;96827.28;5052983;28;20535;-55
2023/01/30 01:24:49;;;;;;;35.63;18.20;;;;;;;3.12;100.00;96818.00;5057795;28;20437;-55
2023/01/30 01:27:18;;;;;;;34.53;17.80;;;;;;;3.38;100.00;96813.88;5051600;28;20544;-57
2023/01/30 01:29:48;;;;;;;36.80;18.48;;;;;;;3.40;100.00;96820.66;5049713;28;20068;-58
2023/01/30 01:32:16;;;;;;;38.58;19.75;;;;;;;3.13;100.00;96817.91;5060104;28;20108;-55
2023/01/30 01:34:45;;;;;;;33.80;18.58;;;;;;;3.22;100.00;96813.94;5058338;28;20061;-54
2023/01/30 01:37:13;;;;;;;36.45;17.92;;;;;;;3.01;100.00;96813.41;5058049;28;20070;-57
2023/01/30 01:42:30;;;;;;;37.72;19.85;;;;;;;2.87;100.00;96796.00;5061516;28;20523;-54
2023/01/30 01:45:10;;;;;;;36.28;19.27;;;;;;;2.70;100.00;96796.13;5055528;28;20110;-55
2023/01/30 01:47:41;;;;;;;36.95;18.83;;;;;;;2.87;100.00;96782.13;5054729;28;20083;-57
2023/01/30 01:50:10;;;;;;;34.20;18.67;;;;;;;2.89;100.00;96783.72;5054138;28;20091;-53
2023/01/30 01:52:39;;;;;;;38.87;19.57;;;;;;;3.39;100.00;96779.88;5056160;28;20069;-55
2023/01/30 01:55:08;;;;;;;39.35;19.35;;;;;;;3.02;100.00;96783.81;5050493;28;20490;-52
2023/01/30 01:57:38;;;;;;;37.78;18.38;;;;;;;2.99;100.00;96795.25;5050139;28;20084;-56
2023/01/30 02:00:12;;;;;;;37.00;18.63;;;;;;;3.42;100.00;96797.09;5053319;28;20080;-55
2023/01/30 02:02:41;;;;;;;32.72;17.98;;;;;;;2.74;100.00;96798.47;5051913;28;20084;-51
2023/01/30 02:05:11;;;;;;;36.83;19.85;;;;;;;2.79;100.00;96787.78;5060802;28;20080;-54
2023/01/30 02:07:43;;;;;;;39.17;20.17;;;;;;;2.74;100.00;96789.81;5057701;28;20076;-54
2023/01/30 02:10:16;;;;;;;36.40;18.50;;;;;;;2.97;100.00;96793.69;5057801;28;20068;-55
2023/01/30 02:12:45;;;;;;;36.63;18.15;;;;;;;3.03;100.00;96801.16;5055978;28;20747;-54
2023/01/30 02:15:15;;;;;;;35.35;17.98;;;;;;;3.31;100.00;96797.75;5047245;28;20592;-52
2023/01/30 02:17:44;;;;;;;35.28;17.48;;;;;;;2.97;100.00;96799.75;5049042;28;20075;-50
2023/01/30 02:20:19;;;;;;;33.97;17.10;;;;;;;2.95;100.00;96805.97;5061166;28;20088;-53
2023/01/30 02:23:16;;;;;;;36.67;19.20;;;;;;;3.04;100.00;96806.25;5057029;28;20084;-55
2023/01/30 02:26:22;;;;;;;29.38;14.52;;;;;;;2.87;100.00;96803.81;5046932;28;20080;-52
2023/01/30 02:29:18;;;;;;;38.25;18.38;;;;;;;2.96;100.00;96798.06;5045365;28;20076;-52
2023/01/30 02:31:50;;;;;;;35.08;17.90;;;;;;;2.81;100.00;96797.16;5058120;28;20080;-54
2023/01/30 02:34:30;;;;;;;36.97;18.27;;;;;;;3.02;100.00;96795.09;5052736;28;20080;-54
2023/01/30 02:37:09;;;;;;;35.25;17.75;;;;;;;3.05;100.00;96794.06;5061112;28;20438;-52
2023/01/30 02:39:47;;;;;;;36.03;17.55;;;;;;;2.73;100.00;96808.97;5049896;28;20071;-55
2023/01/30 02:42:22;;;;;;;39.83;19.45;;;;;;;2.77;100.00;96794.84;5056658;28;20071;-55
2023/01/30 02:44:58;;;;;;;38.47;19.02;;;;;;;3.15;100.00;96794.38;5058054;28;20091;-52
2023/01/30 02:47:30;;;;;;;37.67;19.17;;;;;;;3.07;100.00;96792.22;5054562;28;20488;-54
2023/01/30 02:50:03;;;;;;;39.15;19.65;;;;;;;2.54;100.00;96801.34;5031636;28;20068;-55
2023/01/30 02:52:33;;;;;;;38.08;19.10;;;;;;;2.75;100.00;96802.75;5050498;28;20510;-57
2023/01/30 02:55:08;;;;;;;37.28;19.17;;;;;;;2.78;100.00;96796.50;5050002;28;20064;-56
2023/01/30 02:57:36;;;;;;;40.78;20.35;;;;;;;2.85;100.00;96796.06;5054610;28;20080;-52
2023/01/30 03:00:05;;;;;;;39.33;20.65;;;;;;;2.34;100.00;96792.06;5047475;28;20084;-49
2023/01/30 03:02:49;;;;;;;33.60;15.75;;;;;;;2.94;100.00;96788.66;5049908;28;20080;-51
2023/01/30 03:05:31;;;;;;;36.15;16.95;;;;;;;3.00;100.00;96796.97;5053059;28;20076;-52
2023/01/30 03:08:08;;;;;;;33.95;15.95;;;;;;;2.68;100.00;96806.63;5055467;28;20092;-53
2023/01/30 03:10:38;;;;;;;36.78;17.88;;;;;;;2.68;100.00;96796.19;5048087;28;20096;-52
2023/01/30 03:13:11;;;;;;;37.80;18.15;;;;;;;2.68;100.00;96792.75;5060448;28;20080;-52
2023/01/30 03:15:43;;;;;;;42.35;21.08;;;;;;;2.53;100.00;96776.25;5047673;28;20045;-56
2023/01/30 03:18:12;;;;;;;37.50;18.75;;;;;;;2.60;100.00;96760.19;5050782;28;20090;-55
2023/01/30 03:20:41;;;;;;;36.95;20.10;;;;;;;2.48;100.00;96755.72;5046454;28;20088;-54
2023/01/30 03:23:09;;;;;;;39.70;21.20;;;;;;;2.74;100.00;96762.00;5053626;28;20091;-57
2023/01/30 03:25:40;;;;;;;40.72;19.85;;;;;;;2.77;100.00;96761.00;5051423;28;20472;-58
2023/01/30 03:28:08;;;;;;;40.88;18.30;;;;;;;2.64;100.00;96778.25;5049521;28;20076;-58
2023/01/30 03:30:37;;;;;;;37.10;18.10;;;;;;;3.02;100.00;96776.00;5050162;28;20080;-53
2023/01/30 03:33:05;;;;;;;38.95;19.35;;;;;;;2.69;100.00;96771.84;5057126;28;20072;-56
2023/01/30 03:35:35;;;;;;;39.78;19.92;;;;;;;2.91;100.00;96760.19;5047277;28;20087;-52
2023/01/30 03:38:03;;;;;;;37.05;17.95;;;;;;;3.11;100.00;96765.06;5044412;28;20080;-55
2023/01/30 03:40:32;;;;;;;34.65;17.80;;;;;;;2.54;100.00;96765.75;5056686;28;20073;-53
2023/01/30 03:43:00;;;;;;;38.45;18.67;;;;;;;2.99;100.00;96760.56;5055496;28;20533;-55
2023/01/30 03:45:28;;;;;;;36.30;17.20;;;;;;;2.79;100.00;96769.56;5045314;28;20092;-55
2023/01/30 03:47:56;;;;;;;38.28;18.67;;;;;;;2.93;100.00;96764.38;5046366;28;20072;-54
2023/01/30 03:50:25;;;;;;;38.70;19.35;;;;;;;2.93;100.00;96773.97;5047563;28;20099;-56
2023/01/30 03:52:54;;;;;;;36.42;18.00;;;;;;;2.61;100.00;96769.69;5047947;28;20088;-53
2023/01/30 03:55:23;;;;;;;40.38;19.80;;;;;;;3.22;100.00;96754.00;5049584;28;20525;-53
2023/01/30 03:57:55;;;;;;;34.80;18.73;;;;;;;2.87;100.00;96759.53;5048651;28;20095;-53
2023/01/30 04:00:23;;;;;;;35.85;17.13;;;;;;;3.20;100.00;96748.88;5048711;28;20124;-56
2023/01/30 04:02:53;;;;;;;38.15;18.50;;;;;;;2.80;100.00;96747.78;5050824;28;20037;-54
2023/01/30 04:05:22;;;;;;;41.65;18.60;;;;;;;2.97;100.00;96741.59;5048653;28;20080;-57
2023/01/30 04:07:50;;;;;;;36.78;16.45;;;;;;;2.28;100.00;96763.81;5047667;28;20083;-55
2023/01/30 04:10:20;;;;;;;28.13;13.23;;;;;;;2.33;100.00;96759.16;5043078;28;20084;-55
2023/01/30 04:12:49;;;;;;;34.93;17.20;;;;;;;2.63;100.00;96766.16;5048970;28;20476;-53
2023/01/30 04:15:17;;;;;;;32.75;15.18;;;;;;;2.32;100.00;96780.91;5050571;28;20510;-55
2023/01/30 04:17:47;;;;;;;34.28;17.27;;;;;;;2.51;100.00;96781.56;5050042;28;20517;-57
2023/01/30 04:20:16;;;;;;;32.92;16.58;;;;;;;2.69;100.00;96774.47;5046736;28;20079;-52
2023/01/30 04:22:44;;;;;;;37.03;17.52;;;;;;;2.24;100.00;96760.53;5051048;28;20733;-55
2023/01/30 04:25:12;;;;;;;34.38;16.63;;;;;;;2.65;100.00;96759.09;5049501;28;20076;-57
2023/01/30 04:27:42;;;;;;;36.42;17.98;;;;;;;2.11;100.00;96765.56;5050059;28;20080;-51
2023/01/30 04:30:11;;;;;;;35.75;16.48;;;;;;;2.30;100.00;96752.34;5048917;28;20071;-54
2023/01/30 04:32:40;;;;;;;26.48;13.55;;;;;;;2.67;100.00;96762.44;5047073;28;20544;-54
2023/01/30 04:35:09;;;;;;;43.40;21.50;;;;;;;2.53;100.00;96743.25;5048034;28;20085;-54
2023/01/30 04:37:37;;;;;;;39.00;19.17;;;;;;;2.64;100.00;96729.59;5046746;28;20084;-54
2023/01/30 04:40:06;;;;;;;40.67;18.98;;;;;;;2.64;100.00;96726.19;5044730;28;20080;-57
2023/01/30 04:42:35;;;;;;;41.23;20.40;;;;;;;2.94;100.00;96713.13;5047496;28;20084;-51
2023/01/30 04:45:05;;;;;;;41.40;20.00;;;;;;;2.77;100.00;96704.53;5048168;28;20083;-55
2023/01/30 04:47:34;;;;;;;39.92;19.40;;;;;;;2.95;100.00;96705.19;5044958;28;20524;-54
2023/01/30 04:50:02;;;;;;;36.83;18.42;;;;;;;2.70;100.00;96713.63;5045997;28;20087;-56
2023/01/30 04:52:30;;;;;;;35.80;18.63;;;;;;;2.91;100.00;96724.56;5046464;28;20087;-53
2023/01/30 04:54:59;;;;;;;36.90;18.75;;;;;;;2.98;100.00;96725.03;5048042;28;20099;-54
2023/01/30 04:57:27;;;;;;;35.40;17.65;;;;;;;2.47;100.00;96727.16;5045942;28;20087;-50
2023/01/30 04:59:55;;;;;;;35.08;15.77;;;;;;;2.74;100.00;96720.34;5045340;28;20562;-56
2023/01/30 05:02:25;;;;;;;40.30;21.02;;;;;;;2.71;100.00;96694.47;5044656;28;20079;-57
2023/01/30 05:04:53;;;;;;;36.40;18.63;;;;;;;3.11;100.00;96679.06;5047826;28;20556;-52
2023/01/30 05:07:22;;;;;;;37.53;17.67;;;;;;;2.96;100.00;96682.59;5045818;28;20088;-54
2023/01/30 05:09:50;;;;;;;35.60;19.27;;;;;;;2.90;100.00;96686.41;5049508;28;20068;-53
2023/01/30 05:12:18;;;;;;;38.58;18.63;;;;;;;3.16;100.00;96663.97;5043245;28;20068;-52
2023/01/30 05:14:47;;;;;;;34.47;16.83;;;;;;;3.02;100.00;96664.81;5044913;28;20069;-55
2023/01/30 05:17:15;;;;;;;40.92;20.70;;;;;;;2.86;100.00;96666.72;5046813;28;20099;-54
2023/01/30 05:19:45;;;;;;;41.92;20.02;;;;;;;2.62;100.00;96674.22;5049151;28;20056;-53
2023/01/30 05:22:13;;;;;;;37.87;19.60;;;;;;;2.69;100.00;96680.72;5033382;28;20491;-55
2023/01/30 05:24:41;;;;;;;41.38;20.92;;;;;;;2.80;100.00;96683.53;5044161;28;20506;-53
2023/01/30 05:27:10;;;;;;;44.45;22.73;;;;;;;2.43;100.00;96687.44;5044993;28;20088;-56
2023/01/30 05:29:38;;;;;;;41.95;20.58;;;;;;;2.51;100.00;96674.84;5042042;28;20068;-56
2023/01/30 05:32:06;;;;;;;39.22;20.35;;;;;;;2.25;100.00;96680.72;5045567;28;20454;-56
2023/01/30 05:34:35;;;;;;;39.05;20.08;;;;;;;2.69;100.00;96685.09;5045814;28;20076;-53
2023/01/30 05:37:04;;;;;;;40.75;19.60;;;;;;;2.63;100.00;96680.25;5043976;28;20076;-55
2023/01/30 05:39:33;;;;;;;39.73;20.70;;;;;;;2.87;100.00;96677.97;5029639;28;20087;-57
2023/01/30 05:42:01;;;;;;;40.20;18.38;;;;;;;2.87;100.00;96670.97;5045594;28;20518;-52
2023/01/30 05:44:29;;;;;;;38.05;19.92;;;;;;;2.81;100.00;96672.16;5048361;28;20080;-58
2023/01/30 05:46:58;;;;;;;41.85;21.25;;;;;;;2.53;100.00;96672.97;5045326;28;20076;-54
2023/01/30 05:49:26;;;;;;;35.35;18.70;;;;;;;2.78;100.00;96681.94;5042687;28;20148;-57
2023/01/30 05:51:55;;;;;;;38.60;19.15;;;;;;;3.12;100.00;96680.75;5026055;28;20080;-55
2023/01/30 05:54:24;;;;;;;37.35;17.73;;;;;;;3.27;100.00;96669.41;5040515;28;20073;-57
2023/01/30 05:56:53;;;;;;;39.05;17.88;;;;;;;3.37;100.00;96667.03;5048696;28;20076;-54
2023/01/30 05:59:21;;;;;;;36.92;18.25;;;;;;;3.39;100.00;96680.81;5045220;28;20072;-52
2023/01/30 06:01:50;;;;;;;39.50;21.00;;;;;;;2.75;100.00;96666.50;5034383;28;20069;-49
2023/01/30 06:04:18;;;;;;;36.30;18.27;;;;;;;2.49;100.00;96652.44;5050997;28;20508;-52
2023/01/30 06:06:49;;;;;;;38.92;19.40;;;;;;;2.49;100.00;96644.63;5052333;28;20099;-51
2023/01/30 06:09:17;;;;;;;37.80;19.85;;;;;;;2.36;100.00;96653.13;5052870;28;20093;-52
2023/01/30 06:11:47;;;;;;;36.88;18.63;;;;;;;2.83;100.00;96646.88;5048128;28;20069;-54
2023/01/30 06:14:15;;;;;;;38.30;19.45;;;;;;;3.02;100.00;96654.41;5048184;28;20107;-52
2023/01/30 06:16:44;;;;;;;33.45;17.10;;;;;;;3.27;100.00;96660.75;5048194;28;20071;-52
2023/01/30 06:19:12;;;;;;;25.15;12.57;;;;;;;2.90;100.00;96680.38;5051273;28;20084;-54
2023/01/30 06:21:40;;;;;;;27.38;14.10;;;;;;;2.72;100.00;96674.47;5043842;28;20063;-54
2023/01/30 06:24:09;;;;;;;30.80;15.57;;;;;;;2.79;100.00;96662.78;5046729;28;20088;-52
2023/01/30 06:26:37;;;;;;;31.40;16.02;;;;;;;3.26;100.00;96651.22;5041903;28;20072;-54
2023/01/30 06:29:07;;;;;;;30.80;15.23;;;;;;;3.35;100.00;96647.22;5057575;28;20079;-53
2023/01/30 06:31:35;;;;;;;28.67;14.52;;;;;;;3.45;100.00;96650.94;5055672;28;20056;-49
2023/01/30 06:34:03;;;;;;;33.78;17.00;;;;;;;3.54;100.00;96653.81;5056925;28;20092;-55
2023/01/30 06:36:32;;;;;;;30.92;15.10;;;;;;;3.39;100.00;96652.16;5048567;28;20084;-51
2023/01/30 06:39:00;;;;;;;29.83;14.50;;;;;;;2.89;100.00;96656.09;5051686;28;20091;-54
2023/01/30 06:41:28;;;;;;;32.33;14.43;;;;;;;3.17;100.00;96663.06;5053175;28;20056;-53
2023/01/30 06:43:57;;;;;;;25.58;12.93;;;;;;;2.93;100.00;96660.19;5052900;28;20076;-57
2023/01/30 06:46:27;;;;;;;21.90;10.57;;;;;;;3.42;100.00;96672.81;5060736;28;20090;-56
2023/01/30 06:48:55;;;;;;;24.42;12.32;;;;;;;3.17;100.00;96672.66;5052137;28;20087;-55
2023/01/30 06:51:26;;;;;;;26.90;13.70;;;;;;;3.10;100.00;96664.38;5052415;28;20087;-53
2023/01/30 06:53:54;;;;;;;;;;;;;;;3.19;100.00;96660.34;5058423;28;20557;-53
2023/01/30 06:56:22;;;;;;;18.55;11.20;;;;;;;3.14;100.00;96652.00;5053751;28;19967;-51
2023/01/30 06:58:50;;;;;;;21.40;10.68;;;;;;;3.22;100.00;96663.63;5055550;28;20473;-57
2023/01/30 07:01:20;;;;;;;19.88;10.95;;;;;;;3.16;100.00;96657.94;5059592;28;20167;-53
2023/01/30 07:03:49;;;;;;;22.95;12.75;;;;;;;3.42;100.00;96659.78;5061869;28;20468;-54
2023/01/30 07:06:18;;;;;;;20.77;11.50;;;;;;;3.18;100.00;96659.53;5056565;28;20084;-55
2023/01/30 07:08:47;;;;;;;23.05;10.85;;;;;;;3.57;100.00;96665.78;5063683;28;20092;-57
2023/01/30 07:11:15;;;;;;;22.60;11.95;;;;;;;3.45;100.00;96663.97;5057810;28;20496;-52
2023/01/30 07:13:43;;;;;;;23.95;12.07;;;;;;;3.61;100.00;96658.63;5047514;28;20434;-52
2023/01/30 07:16:12;;;;;;;25.73;12.20;;;;;;;3.43;100.00;96627.56;5054019;28;20103;-54
2023/01/30 07:18:40;;;;;;;27.95;13.60;;;;;;;3.76;100.00;96655.06;5047379;28;20146;-49
2023/01/30 07:21:10;;;;;;;22.13;9.75;;;;;;;3.63;100.00;96643.72;5051793;28;20080;-53
2023/01/30 07:23:38;;;;;;;15.37;8.93;;;;;;;3.26;100.00;96643.41;5057055;28;20088;-56
2023/01/30 07:26:06;;;;;;;24.95;10.50;;;;;;;3.96;100.00;96623.28;5059515;28;20088;-54
2023/01/30 07:28:34;;;;;;;23.08;12.13;;;;;;;3.40;100.00;96621.69;5047974;28;20510;-54
2023/01/30 07:31:03;;;;;;;26.42;13.65;;;;;;;3.45;100.00;96636.13;5055807;28;20548;-53
2023/01/30 07:33:31;;;;;;;20.60;9.75;;;;;;;3.45;100.00;96637.91;5048263;28;20081;-53
2023/01/30 07:35:59;;;;;;;18.02;10.52;;;;;;;3.87;100.00;96646.53;5053049;28;20084;-53
2023/01/30 07:38:29;;;;;;;16.88;9.57;;;;;;;4.05;100.00;96637.50;5036295;28;20076;-55
2023/01/30 07:40:58;;;;;;;20.65;10.95;;;;;;;4.03;100.00;96632.41;5050715;28;20087;-54
2023/01/30 07:43:26;;;;;;;19.27;9.05;;;;;;;4.09;100.00;96638.13;5027787;28;20083;-53
2023/01/30 07:45:55;;;;;;;20.30;10.07;;;;;;;4.41;100.00;96636.03;5046749;28;20099;-51
2023/01/30 07:48:23;;;;;;;20.98;11.77;;;;;;;4.23;100.00;96596.31;5025767;28;20065;-55
2023/01/30 07:50:56;;;;;;;20.35;10.55;;;;;;;4.42;100.00;96627.25;5046384;28;20072;-50
2023/01/30 07:53:24;;;;;;;23.27;10.75;;;;;;;4.59;100.00;96619.13;5046229;28;20501;-56
2023/01/30 07:55:54;;;;;;;20.73;11.07;;;;;;;4.49;100.00;96613.69;5053756;28;20084;-57
2023/01/30 07:58:22;;;;;;;18.15;10.30;;;;;;;4.36;100.00;96593.72;5028504;28;20065;-52
2023/01/30 08:00:55;;;;;;;17.70;10.07;;;;;;;4.56;100.00;96597.59;5043030;28;20136;-57
2023/01/30 08:03:23;;;;;;;16.65;9.98;;;;;;;4.24;100.00;96580.56;5042525;28;20063;-54
2023/01/30 08:05:52;;;;;;;23.25;12.57;;;;;;;4.52;100.00;96599.59;5043664;28;20117;-49
2023/01/30 08:08:21;;;;;;;16.67;8.52;;;;;;;4.47;100.00;96592.06;5048042;28;20080;-54
2023/01/30 08:10:49;;;;;;;14.50;8.80;;;;;;;4.47;100.00;96589.47;5047619;28;20085;-52
2023/01/30 08:13:19;;;;;;;15.05;7.85;;;;;;;4.84;100.00;96593.94;5049895;28;20091;-53
2023/01/30 08:15:47;;;;;;;22.03;11.03;;;;;;;4.53;100.00;96583.78;5047195;28;20088;-49
2023/01/30 08:18:15;;;;;;;18.42;10.48;;;;;;;4.86;98.12;96581.59;5050439;28;20465;-52
2023/01/30 08:20:44;;;;;;;17.52;8.93;;;;;;;4.88;98.36;96549.19;5052104;28;20080;-53
2023/01/30 08:23:12;;;;;;;17.55;9.85;;;;;;;4.87;96.39;96560.59;5051858;28;20076;-55
2023/01/30 08:25:40;;;;;;;15.75;9.10;;;;;;;4.84;96.48;96573.84;5050921;28;20095;-55
2023/01/30 08:28:09;;;;;;;14.75;9.52;;;;;;;4.87;98.24;96578.03;5050016;28;20073;-56
2023/01/30 08:30:41;;;;;;;15.55;9.40;;;;;;;4.65;96.68;96594.38;5058395;28;20083;-51
2023/01/30 08:33:09;;;;;;;14.40;8.82;;;;;;;4.82;94.56;96582.72;5053409;28;20555;-53
2023/01/30 08:35:37;;;;;;;14.40;7.82;;;;;;;5.09;92.36;96561.69;5062353;28;20092;-53
2023/01/30 08:38:07;;;;;;;13.68;7.72;;;;;;;5.35;93.70;96565.91;5052380;28;20088;-53
2023/01/30 08:40:36;;;;;;;15.05;7.93;;;;;;;4.89;96.60;96577.00;5044729;28;20115;-52
2023/01/30 08:43:04;;;;;;;15.75;8.13;;;;;;;5.48;91.43;96563.25;5056744;28;20118;-50
2023/01/30 08:45:33;;;;;;;13.30;7.57;;;;;;;5.43;94.86;96566.19;5049445;28;20084;-55
2023/01/30 08:48:04;;;;;;;14.10;7.13;;;;;;;4.95;98.47;96563.47;5053772;28;20084;-50
2023/01/30 08:50:33;;;;;;;15.73;7.97;;;;;;;5.08;96.80;96562.63;5050760;28;20148;-55
2023/01/30 08:53:05;;;;;;;15.07;8.68;;;;;;;5.32;98.61;96563.50;5048232;28;20081;-51
2023/01/30 08:55:34;;;;;;;15.20;8.30;;;;;;;4.83;97.56;96563.53;5050055;28;20060;-55
2023/01/30 08:58:03;;;;;;;14.57;8.82;;;;;;;5.13;99.78;96560.53;5053675;28;20096;-53
2023/01/30 09:00:31;;;;;;;12.90;7.20;;;;;;;4.99;100.00;96551.91;5049053;28;20089;-55
2023/01/30 09:03:00;;;;;;;15.73;6.97;;;;;;;4.95;100.00;96534.72;5053347;28;20088;-56
2023/01/30 09:05:31;;;;;;;11.45;5.97;;;;;;;5.44;98.58;96528.63;5046875;28;20080;-57
2023/01/30 09:07:59;;;;;;;13.23;7.80;;;;;;;5.52;95.06;96530.69;5047181;28;20088;-57
2023/01/30 09:10:28;;;;;;;12.65;7.32;;;;;;;5.55;100.00;96522.63;5047083;28;20087;-51
2023/01/30 09:12:56;;;;;;;11.48;6.90;;;;;;;5.83;96.58;96518.81;5053235;28;20087;-52
2023/01/30 09:15:25;;;;;;;10.73;5.75;;;;;;;6.15;97.02;96532.13;5051218;28;20079;-55
2023/01/30 09:17:53;;;;;;;11.95;6.63;;;;;;;6.12;93.81;96536.75;5052198;28;20507;-53
2023/01/30 09:20:22;;;;;;;11.50;6.28;;;;;;;6.58;89.90;96522.78;5036996;28;20098;-56
2023/01/30 09:22:52;;;;;;;11.20;6.40;;;;;;;6.41;88.54;96527.53;5046180;28;20473;-50
2023/01/30 09:25:20;;;;;;;11.20;6.17;;;;;;;6.72;89.81;96540.91;5051279;28;20064;-49
2023/01/30 09:27:49;;;;;;;14.43;7.35;;;;;;;6.64;86.76;96543.25;5052706;28;20537;-56
2023/01/30 09:30:18;;;;;;;10.93;5.90;;;;;;;6.67;84.07;96537.78;5049367;28;20072;-55
2023/01/30 09:32:48;;;;;;;11.03;6.20;;;;;;;7.06;85.65;96539.09;5048155;28;20068;-53
2023/01/30 09:35:16;;;;;;;11.10;5.80;;;;;;;7.13;85.80;96526.34;5048795;28;20068;-52
2023/01/30 09:37:48;;;;;;;10.65;5.78;;;;;;;6.96;90.85;96521.59;5052055;28;21522;-54
2023/01/30 09:40:20;;;;;;;10.63;5.82;;;;;;;6.59;92.04;96533.16;5047048;28;20084;-46
2023/01/30 09:43:10;;;;;;;12.13;7.35;;;;;;;7.01;91.65;96535.16;5049377;28;20544;-56
2023/01/30 09:45:45;;;;;;;10.80;5.97;;;;;;;6.83;86.41;96516.47;5034977;28;20820;-55
2023/01/30 09:48:21;;;;;;;10.15;5.78;;;;;;;6.41;88.32;96505.75;5046120;28;20543;-54
2023/01/30 09:51:11;;;;;;;9.75;6.45;;;;;;;6.40;81.29;96511.94;5047482;28;20126;-51
2023/01/30 09:53:52;;;;;;;11.75;7.40;;;;;;;6.29;77.87;96504.06;5050096;28;20103;-52
2023/01/30 09:56:22;;;;;;;13.32;7.38;;;;;;;6.24;72.35;96495.75;5055941;28;20091;-54
2023/01/30 09:58:53;;;;;;;14.63;8.13;;;;;;;6.06;77.25;96488.34;5051735;28;20083;-51
2023/01/30 10:01:27;;;;;;;10.93;6.10;;;;;;;6.30;78.15;96496.09;5049644;28;20149;-55
2023/01/30 10:04:05;;;;;;;16.48;8.05;;;;;;;6.21;77.38;96495.97;5051845;28;20096;-56
2023/01/30 10:06:36;;;;;;;12.43;7.75;;;;;;;6.50;75.74;96499.78;5049405;28;20688;-50
2023/01/30 10:09:10;;;;;;;10.27;6.13;;;;;;;6.55;77.31;96502.06;5053532;28;20497;-51
2023/01/30 10:11:50;;;;;;;10.05;6.53;;;;;;;6.59;78.78;96503.50;5048353;28;20084;-53
2023/01/30 10:14:34;;;;;;;8.80;5.90;;;;;;;7.22;80.50;96488.88;5047077;28;20084;-56
2023/01/30 10:17:20;;;;;;;12.00;6.90;;;;;;;7.01;76.35;96482.72;5042625;28;20085;-51
2023/01/30 10:20:13;;;;;;;11.27;6.47;;;;;;;7.11;74.13;96466.13;5048694;28;20091;-54
2023/01/30 10:22:50;;;;;;;14.88;8.10;;;;;;;6.92;74.83;96450.22;5048392;28;20064;-51
2023/01/30 10:25:24;;;;;;;8.32;5.13;;;;;;;7.60;74.47;96432.44;5043871;28;20073;-54
2023/01/30 10:27:59;;;;;;;11.80;8.18;;;;;;;7.07;81.05;96424.56;5046854;28;20106;-53
2023/01/30 10:30:28;;;;;;;9.30;6.15;;;;;;;7.57;79.17;96430.06;5044237;28;20080;-51
2023/01/30 10:33:01;;;;;;;12.27;6.90;;;;;;;6.97;84.50;96421.00;5049854;28;20084;-54
2023/01/30 10:35:32;;;;;;;13.57;6.22;;;;;;;7.55;84.67;96442.50;5050490;28;20080;-55
2023/01/30 10:38:06;;;;;;;8.95;5.68;;;;;;;7.35;88.79;96423.16;5053598;28;20563;-54
2023/01/30 10:40:38;;;;;;;10.32;6.47;;;;;;;7.57;86.75;96435.31;5051683;28;20091;-51
2023/01/30 10:43:12;;;;;;;11.93;6.30;;;;;;;7.51;84.35;96441.09;5048897;28;20075;-50
2023/01/30 10:45:44;;;;;;;9.25;5.45;;;;;;;7.21;91.50;96433.94;5046015;28;20087;-54
2023/01/30 10:48:25;;;;;;;12.30;6.60;;;;;;;7.16;87.98;96422.97;5043405;28;20076;-54
2023/01/30 10:51:18;;;;;;;9.75;6.20;;;;;;;7.13;89.11;96419.66;5045787;28;20477;-52
2023/01/30 10:53:50;;;;;;;8.98;5.70;;;;;;;6.56;90.85;96414.66;5048468;28;20095;-53
2023/01/30 10:56:20;;;;;;;14.60;6.85;;;;;;;6.97;93.11;96418.38;5056419;28;20147;-53
2023/01/30 10:58:54;;;;;;;8.45;5.57;;;;;;;6.78;92.13;96400.66;5046568;28;20080;-55
2023/01/30 11:01:25;;;;;;;8.68;4.78;;;;;;;7.10;93.12;96395.47;5044892;28;20068;-50
2023/01/30 11:03:57;;;;;;;8.65;5.57;;;;;;;7.25;94.08;96409.94;5043237;28;20091;-54
2023/01/30 11:06:26;;;;;;;8.63;5.43;;;;;;;7.22;93.66;96383.13;5042889;28;20725;-50
2023/01/30 11:08:55;;;;;;;12.82;5.60;;;;;;;7.43;99.13;96378.75;5043725;28;20084;-55
2023/01/30 11:11:27;;;;;;;8.75;5.75;;;;;;;7.28;93.41;96372.97;5051988;28;20111;-50
2023/01/30 11:14:07;;;;;;;8.18;4.90;;;;;;;8.20;88.78;96367.03;5043076;28;20080;-53
2023/01/30 11:16:43;;;;;;;13.05;6.40;;;;;;;8.23;87.35;96379.91;5046289;28;20151;-46
2023/01/30 11:19:11;;;;;;;8.32;4.85;;;;;;;7.93;96.08;96376.31;5047389;28;20084;-53
2023/01/30 11:21:51;;;;;;;9.48;4.95;;;;;;;8.26;83.68;96364.72;5045942;28;20084;-52
2023/01/30 11:24:20;;;;;;;8.88;5.15;;;;;;;8.13;85.63;96343.09;5061945;28;20087;-53
2023/01/30 11:26:49;;;;;;;8.57;5.82;;;;;;;8.27;87.44;96349.78;5050046;28;20087;-55
2023/01/30 11:29:27;;;;;;;8.45;4.72;;;;;;;8.11;89.43;96350.25;5048940;28;20095;-53
2023/01/30 11:31:56;;;;;;;8.80;5.43;;;;;;;8.12;92.31;96348.47;5053495;28;20488;-51
2023/01/30 11:34:25;;;;;;;8.50;5.32;;;;;;;7.56;91.31;96347.91;5047350;28;20103;-54
2023/01/30 11:36:53;;;;;;;8.23;5.32;;;;;;;7.72;92.60;96355.31;5048378;28;20076;-52
2023/01/30 11:39:24;;;;;;;6.78;4.80;;;;;;;8.02;94.67;96343.19;5046532;28;20084;-58
2023/01/30 11:42:00;;;;;;;8.23;5.15;;;;;;;7.84;95.04;96343.81;5051881;28;20132;-54
2023/01/30 11:44:32;;;;;;;10.30;5.78;;;;;;;7.89;96.23;96345.19;5044050;28;20072;-53
2023/01/30 11:47:02;;;;;;;8.20;4.75;;;;;;;7.71;97.16;96345.81;5050664;28;20563;-52
2023/01/30 11:49:33;;;;;;;10.15;5.72;;;;;;;7.97;95.77;96343.56;5050871;28;20542;-55